createdAt,value
2018-05-03T00:01:11.105Z,99.90
2018-05-03T00:03:40.215Z,99.90
2018-05-03T00:06:08.617Z,99.90
2018-05-03T00:08:36.954Z,99.90
2018-05-03T00:11:06.119Z,99.90
2018-05-03T00:13:34.507Z,99.90
2018-05-03T00:16:03.151Z,99.90
2018-05-03T00:18:31.503Z,99.90
2018-05-03T00:21:00.614Z,99.90
2018-05-03T00:23:28.963Z,99.90
2018-05-03T00:25:57.316Z,99.90
2018-05-03T00:28:25.768Z,99.90
2018-05-03T00:30:54.147Z,99.90
2018-05-03T00:33:22.527Z,99.90
2018-05-03T00:35:50.885Z,99.90
2018-05-03T00:38:20.056Z,99.90
2018-05-03T00:40:48.801Z,99.90
2018-05-03T00:43:17.406Z,99.90
2018-05-03T00:45:45.749Z,99.90
2018-05-03T00:48:14.309Z,99.90
2018-05-03T00:50:42.642Z,99.90
2018-05-03T00:53:11.127Z,99.90
2018-05-03T00:55:39.746Z,99.90
2018-05-03T00:58:08.871Z,99.90
2018-05-03T01:00:37.314Z,99.90
2018-05-03T01:03:05.727Z,99.90
2018-05-03T01:05:34.255Z,99.90
2018-05-03T01:08:02.600Z,99.90
2018-05-03T01:10:30.971Z,99.90
2018-05-03T01:12:59.308Z,99.90
2018-05-03T01:15:27.669Z,99.90
2018-05-03T01:17:56.006Z,99.90
2018-05-03T01:20:25.513Z,99.90
2018-05-03T01:22:53.912Z,99.90
2018-05-03T01:25:22.236Z,99.70
2018-05-03T01:27:50.618Z,99.50
2018-05-03T01:30:19.826Z,99.30
2018-05-03T01:32:48.161Z,99.30
2018-05-03T01:35:28.548Z,99.40
2018-05-03T01:37:56.919Z,99.20
2018-05-03T01:40:25.290Z,99.00
2018-05-03T01:42:53.644Z,98.90
2018-05-03T01:45:22.002Z,98.90
2018-05-03T01:47:50.406Z,98.70
2018-05-03T01:50:18.994Z,98.70
2018-05-03T01:52:47.347Z,98.70
2018-05-03T01:55:15.695Z,98.70
2018-05-03T01:57:44.810Z,98.90
2018-05-03T02:00:13.194Z,98.90
2018-05-03T02:02:41.603Z,99.00
2018-05-03T02:05:09.979Z,98.90
2018-05-03T02:07:38.319Z,98.90
2018-05-03T02:10:07.448Z,99.10
2018-05-03T02:12:35.793Z,99.10
2018-05-03T02:15:05.020Z,98.80
2018-05-03T02:17:33.562Z,98.80
2018-05-03T02:20:01.911Z,98.70
2018-05-03T02:22:30.270Z,98.70
2018-05-03T02:24:58.605Z,99.00
2018-05-03T02:27:27.738Z,98.20
2018-05-03T02:29:56.136Z,98.20
2018-05-03T02:32:24.559Z,98.00
2018-05-03T02:34:52.889Z,97.90
2018-05-03T02:37:21.255Z,97.90
2018-05-03T02:39:49.631Z,97.90
2018-05-03T02:42:17.987Z,97.80
2018-05-03T02:44:47.097Z,97.80
2018-05-03T02:47:15.487Z,97.70
2018-05-03T02:49:43.822Z,97.70
2018-05-03T02:52:12.175Z,97.80
2018-05-03T02:54:40.515Z,97.90
2018-05-03T02:57:20.797Z,98.00
2018-05-03T03:00:00.987Z,98.30
2018-05-03T03:02:47.140Z,98.20
2018-05-03T03:05:33.157Z,98.00
2018-05-03T03:15:03.383Z,98.40
2018-05-03T03:17:49.230Z,98.60
2018-05-03T03:20:54.151Z,99.00
2018-05-03T03:23:40.283Z,99.20
2018-05-03T03:26:26.225Z,99.20
2018-05-03T03:29:12.240Z,99.40
2018-05-03T03:31:59.244Z,99.00
2018-05-03T03:34:30.588Z,99.00
2018-05-03T03:37:16.006Z,98.80
2018-05-03T03:40:02.843Z,98.80
2018-05-03T03:45:46.762Z,98.00
2018-05-03T03:48:15.110Z,98.30
2018-05-03T03:50:43.435Z,98.40
2018-05-03T03:53:11.813Z,98.20
2018-05-03T03:55:40.275Z,98.20
2018-05-03T03:58:08.628Z,98.30
2018-05-03T04:00:37.062Z,98.30
2018-05-03T04:03:05.410Z,98.30
2018-05-03T04:05:33.829Z,98.20
2018-05-03T04:08:02.935Z,98.30
2018-05-03T04:10:32.952Z,98.30
2018-05-03T04:13:02.075Z,98.30
2018-05-03T04:15:30.427Z,98.30
2018-05-03T04:18:11.475Z,98.30
2018-05-03T04:21:02.462Z,98.30
2018-05-03T04:26:34.703Z,98.00
2018-05-03T04:29:03.096Z,98.00
2018-05-03T04:31:32.193Z,97.90
2018-05-03T04:34:00.537Z,97.90
2018-05-03T04:36:29.093Z,97.80
2018-05-03T04:38:57.704Z,97.90
2018-05-03T04:41:26.099Z,97.50
2018-05-03T04:43:55.222Z,97.80
2018-05-03T04:46:23.584Z,97.50
2018-05-03T04:48:52.687Z,97.40
2018-05-03T04:51:21.049Z,97.40
2018-05-03T04:53:50.237Z,97.30
2018-05-03T04:56:18.604Z,97.30
2018-05-03T04:58:46.961Z,97.20
2018-05-03T05:01:15.354Z,97.40
2018-05-03T05:03:43.775Z,97.40
2018-05-03T05:06:12.152Z,97.50
2018-05-03T05:08:41.399Z,97.90
2018-05-03T05:11:09.810Z,97.90
2018-05-03T05:13:38.233Z,98.10
2018-05-03T05:16:06.593Z,98.40
2018-05-03T05:18:34.963Z,98.70
2018-05-03T05:21:04.072Z,98.80
2018-05-03T05:23:32.416Z,98.80
2018-05-03T05:26:00.872Z,99.00
2018-05-03T05:28:29.198Z,99.10
2018-05-03T05:30:57.616Z,99.20
2018-05-03T05:33:26.042Z,99.30
2018-05-03T05:35:55.201Z,99.60
2018-05-03T05:38:23.558Z,99.60
2018-05-03T05:40:52.786Z,99.60
2018-05-03T05:43:21.143Z,99.90
2018-05-03T05:45:49.504Z,99.90
2018-05-03T05:48:17.838Z,99.90
2018-05-03T05:50:46.214Z,99.90
2018-05-03T05:53:14.553Z,99.90
2018-05-03T05:55:43.036Z,99.90
2018-05-03T05:58:11.416Z,99.90
2018-05-03T06:00:39.906Z,99.90
2018-05-03T06:03:08.293Z,99.90
2018-05-03T06:05:37.253Z,99.90
2018-05-03T06:08:05.629Z,99.90
2018-05-03T06:10:33.983Z,99.90
2018-05-03T06:13:02.430Z,99.90
2018-05-03T06:15:30.805Z,99.90
2018-05-03T06:17:59.180Z,99.90
2018-05-03T06:20:27.556Z,99.90
2018-05-03T06:22:56.146Z,99.90
2018-05-03T06:25:24.506Z,99.90
2018-05-03T06:27:52.893Z,99.90
2018-05-03T06:30:21.257Z,99.90
2018-05-03T06:32:49.700Z,99.90
2018-05-03T06:35:18.334Z,99.90
2018-05-03T06:37:46.800Z,99.90
2018-05-03T06:40:15.227Z,99.90
2018-05-03T06:42:43.595Z,99.90
2018-05-03T06:45:12.085Z,99.40
2018-05-03T06:47:41.032Z,99.80
2018-05-03T06:50:09.706Z,99.50
2018-05-03T06:52:38.838Z,99.10
2018-05-03T06:55:07.426Z,99.10
2018-05-03T06:57:35.873Z,98.60
2018-05-03T07:00:05.049Z,98.10
2018-05-03T07:02:34.364Z,97.90
2018-05-03T07:05:03.499Z,98.20
2018-05-03T07:07:31.858Z,98.10
2018-05-03T07:10:01.103Z,97.40
2018-05-03T07:12:29.525Z,97.30
2018-05-03T07:14:58.954Z,96.10
2018-05-03T07:17:27.321Z,96.20
2018-05-03T07:19:56.428Z,95.20
2018-05-03T07:22:24.860Z,95.20
2018-05-03T07:24:53.377Z,95.20
2018-05-03T07:27:22.050Z,95.70
2018-05-03T07:29:50.446Z,95.70
2018-05-03T07:32:19.045Z,95.20
2018-05-03T07:34:47.851Z,94.80
2018-05-03T07:37:16.566Z,95.10
2018-05-03T07:39:44.977Z,94.20
2018-05-03T07:42:13.475Z,93.70
2018-05-03T07:44:42.660Z,93.40
2018-05-03T07:47:11.786Z,93.00
2018-05-03T07:49:40.299Z,92.90
2018-05-03T07:52:08.727Z,93.50
2018-05-03T07:54:37.154Z,92.20
2018-05-03T07:57:05.645Z,92.00
2018-05-03T07:59:34.224Z,91.60
2018-05-03T08:02:02.790Z,91.50
2018-05-03T08:04:31.389Z,91.20
2018-05-03T08:07:00.595Z,90.00
2018-05-03T08:09:29.056Z,89.90
2018-05-03T08:11:57.755Z,87.10
2018-05-03T08:14:26.275Z,87.10
2018-05-03T08:16:54.686Z,84.00
2018-05-03T08:19:23.038Z,83.70
2018-05-03T08:21:52.216Z,83.80
2018-05-03T08:24:20.562Z,83.80
2018-05-03T08:26:48.903Z,84.40
2018-05-03T08:29:18.027Z,85.40
2018-05-03T08:31:46.391Z,85.40
2018-05-03T08:34:15.567Z,83.50
2018-05-03T08:36:44.671Z,82.60
2018-05-03T08:39:13.039Z,82.40
2018-05-03T08:41:42.152Z,80.30
2018-05-03T08:44:10.543Z,80.20
2018-05-03T08:46:38.886Z,81.20
2018-05-03T08:49:07.229Z,80.10
2018-05-03T08:51:35.934Z,80.50
2018-05-03T08:54:04.290Z,78.60
2018-05-03T08:56:32.654Z,77.90
2018-05-03T08:59:01.040Z,74.10
2018-05-03T09:01:29.490Z,74.60
2018-05-03T09:03:58.962Z,71.50
2018-05-03T09:06:27.331Z,71.40
2018-05-03T09:08:55.676Z,71.20
2018-05-03T09:11:24.046Z,71.50
2018-05-03T09:13:52.402Z,72.90
2018-05-03T09:16:21.637Z,74.30
2018-05-03T09:18:49.993Z,74.30
2018-05-03T09:21:18.727Z,72.70
2018-05-03T09:23:47.231Z,72.90
2018-05-03T09:26:15.668Z,74.10
2018-05-03T09:28:44.064Z,71.90
2018-05-03T09:31:12.452Z,73.40
2018-05-03T09:33:40.913Z,72.50
2018-05-03T09:36:09.580Z,70.20
2018-05-03T09:38:37.925Z,69.90
2018-05-03T09:41:07.086Z,66.90
2018-05-03T09:43:35.462Z,66.10
2018-05-03T09:46:03.902Z,64.20
2018-05-03T09:48:33.047Z,60.80
2018-05-03T09:51:01.392Z,60.70
2018-05-03T09:53:29.999Z,60.80
2018-05-03T09:55:58.338Z,62.50
2018-05-03T09:58:27.524Z,62.10
2018-05-03T10:00:55.915Z,62.10
2018-05-03T10:03:25.026Z,62.30
2018-05-03T10:05:53.387Z,62.90
2018-05-03T10:08:22.498Z,63.80
2018-05-03T10:10:50.888Z,63.80
2018-05-03T10:13:19.286Z,61.00
2018-05-03T10:15:48.340Z,61.10
2018-05-03T10:18:17.541Z,58.90
2018-05-03T10:20:45.944Z,58.20
2018-05-03T10:23:14.331Z,58.90
2018-05-03T10:25:42.682Z,59.50
2018-05-03T10:28:11.304Z,60.70
2018-05-03T10:30:40.490Z,61.10
2018-05-03T10:33:08.873Z,61.10
2018-05-03T10:35:37.308Z,59.10
2018-05-03T10:38:05.572Z,60.20
2018-05-03T10:40:34.025Z,59.30
2018-05-03T10:43:02.382Z,58.10
2018-05-03T10:45:30.769Z,59.40
2018-05-03T10:47:59.150Z,57.50
2018-05-03T10:50:27.518Z,59.00
2018-05-03T10:52:55.866Z,59.60
2018-05-03T10:55:25.008Z,57.80
2018-05-03T10:57:53.350Z,57.80
2018-05-03T11:00:21.997Z,57.50
2018-05-03T11:02:50.335Z,56.80
2018-05-03T11:05:18.872Z,58.70
2018-05-03T11:07:47.208Z,59.20
2018-05-03T11:10:15.578Z,61.00
2018-05-03T11:12:43.988Z,61.40
2018-05-03T11:15:12.532Z,59.70
2018-05-03T11:17:40.886Z,59.50
2018-05-03T11:20:09.258Z,59.00
2018-05-03T11:22:38.388Z,56.00
2018-05-03T11:25:06.764Z,56.40
2018-05-03T11:27:36.141Z,57.80
2018-05-03T11:30:04.623Z,57.80
2018-05-03T11:32:33.755Z,58.50
2018-05-03T11:35:02.199Z,58.50
2018-05-03T11:37:30.559Z,60.10
2018-05-03T11:39:58.912Z,60.90
2018-05-03T11:42:27.419Z,61.50
2018-05-03T11:44:55.812Z,59.90
2018-05-03T11:47:24.151Z,60.50
2018-05-03T11:49:52.495Z,60.30
2018-05-03T11:52:21.812Z,57.60
2018-05-03T11:54:50.223Z,57.60
2018-05-03T11:57:18.631Z,57.50
2018-05-03T11:59:46.983Z,55.90
2018-05-03T12:02:15.493Z,56.40
2018-05-03T12:04:43.932Z,56.40
2018-05-03T12:07:12.290Z,54.70
2018-05-03T12:09:40.723Z,54.60
2018-05-03T12:12:09.100Z,53.30
2018-05-03T12:14:37.556Z,54.00
2018-05-03T12:17:05.930Z,54.00
2018-05-03T12:19:34.300Z,51.40
2018-05-03T12:22:02.669Z,51.60
2018-05-03T12:24:31.327Z,52.70
2018-05-03T12:26:59.671Z,52.70
2018-05-03T12:29:28.148Z,53.40
2018-05-03T12:31:56.632Z,54.80
2018-05-03T12:34:25.298Z,53.50
2018-05-03T12:36:53.668Z,52.90
2018-05-03T12:39:22.121Z,52.90
2018-05-03T12:41:51.369Z,52.30
2018-05-03T12:44:19.777Z,52.20
2018-05-03T12:46:48.211Z,53.10
2018-05-03T12:49:17.226Z,54.60
2018-05-03T12:51:45.657Z,53.90
2018-05-03T12:54:14.289Z,53.40
2018-05-03T12:56:42.656Z,55.00
2018-05-03T12:59:11.016Z,53.30
2018-05-03T13:01:39.367Z,52.70
2018-05-03T13:04:07.915Z,50.70
2018-05-03T13:06:36.266Z,51.80
2018-05-03T13:09:04.769Z,51.10
2018-05-03T13:11:33.112Z,51.50
2018-05-03T13:14:01.613Z,51.70
2018-05-03T13:16:29.955Z,50.40
2018-05-03T13:18:59.104Z,49.40
2018-05-03T13:21:27.451Z,49.00
2018-05-03T13:23:55.869Z,51.90
2018-05-03T13:26:24.245Z,52.80
2018-05-03T13:28:52.834Z,51.90
2018-05-03T13:31:21.198Z,53.40
2018-05-03T13:33:49.635Z,50.90
2018-05-03T13:36:18.062Z,52.30
2018-05-03T13:38:46.396Z,50.40
2018-05-03T13:41:15.707Z,50.60
2018-05-03T13:43:44.086Z,50.60
2018-05-03T13:46:13.227Z,48.30
2018-05-03T13:48:41.604Z,48.30
2018-05-03T13:51:09.995Z,46.40
2018-05-03T13:53:38.346Z,48.90
2018-05-03T13:56:06.695Z,47.10
2018-05-03T13:58:35.836Z,48.80
2018-05-03T14:01:04.292Z,48.80
2018-05-03T14:03:33.402Z,46.90
2018-05-03T14:06:01.819Z,46.90
2018-05-03T14:08:30.198Z,47.50
2018-05-03T14:10:58.645Z,45.20
2018-05-03T14:13:27.248Z,45.70
2018-05-03T14:15:55.670Z,46.70
2018-05-03T14:18:24.779Z,46.30
2018-05-03T14:20:54.030Z,45.40
2018-05-03T14:23:22.403Z,45.20
2018-05-03T14:25:50.762Z,45.60
2018-05-03T14:28:19.140Z,46.00
2018-05-03T14:30:47.490Z,46.10
2018-05-03T14:33:16.613Z,50.60
2018-05-03T14:35:45.051Z,50.60
2018-05-03T14:38:13.478Z,50.60
2018-05-03T14:40:41.998Z,50.60
2018-05-03T14:43:10.359Z,50.50
2018-05-03T14:45:38.681Z,49.70
2018-05-03T14:48:07.828Z,48.90
2018-05-03T14:50:36.237Z,49.30
2018-05-03T14:53:04.887Z,48.50
2018-05-03T14:55:33.274Z,47.50
2018-05-03T14:58:01.646Z,48.60
2018-05-03T15:00:30.664Z,47.60
2018-05-03T15:02:59.106Z,47.20
2018-05-03T15:05:27.451Z,47.10
2018-05-03T15:07:55.884Z,47.20
2018-05-03T15:10:24.257Z,48.50
2018-05-03T15:12:52.635Z,46.50
2018-05-03T15:15:20.987Z,46.60
2018-05-03T15:17:49.349Z,46.60
2018-05-03T15:20:17.752Z,45.50
2018-05-03T15:22:46.096Z,45.50
2018-05-03T15:25:14.532Z,45.90
2018-05-03T15:27:42.878Z,44.70
2018-05-03T15:30:12.014Z,45.10
2018-05-03T15:32:40.363Z,45.10
2018-05-03T15:35:08.706Z,46.00
2018-05-03T15:37:37.061Z,46.20
2018-05-03T15:40:05.414Z,45.70
2018-05-03T15:42:33.855Z,47.50
2018-05-03T15:45:02.309Z,46.80
2018-05-03T15:47:30.799Z,46.00
2018-05-03T15:49:59.235Z,46.10
2018-05-03T15:52:27.558Z,46.30
2018-05-03T15:54:55.888Z,46.20
2018-05-03T15:57:24.235Z,46.50
2018-05-03T15:59:53.354Z,47.00
2018-05-03T16:02:21.775Z,46.50
2018-05-03T16:04:50.142Z,45.70
2018-05-03T16:07:18.604Z,46.20
2018-05-03T16:09:46.954Z,45.90
2018-05-03T16:12:16.088Z,45.10
2018-05-03T16:14:44.457Z,45.50
2018-05-03T16:17:12.838Z,46.50
2018-05-03T16:19:41.194Z,46.60
2018-05-03T16:22:09.523Z,46.90
2018-05-03T16:24:37.872Z,46.70
2018-05-03T16:27:06.245Z,47.80
2018-05-03T16:29:34.673Z,47.50
2018-05-03T16:32:03.127Z,46.40
2018-05-03T16:34:31.614Z,45.90
2018-05-03T16:36:59.900Z,45.20
2018-05-03T16:39:28.390Z,43.80
2018-05-03T16:41:56.745Z,44.40
2018-05-03T16:44:25.098Z,44.40
2018-05-03T16:46:54.265Z,44.30
2018-05-03T16:49:22.577Z,44.20
2018-05-03T16:51:51.692Z,45.10
2018-05-03T16:54:20.035Z,44.50
2018-05-03T16:56:48.513Z,43.50
2018-05-03T16:59:16.925Z,43.30
2018-05-03T17:01:46.252Z,42.90
2018-05-03T17:04:14.606Z,42.70
2018-05-03T17:06:43.421Z,43.60
2018-05-03T17:09:11.743Z,43.10
2018-05-03T17:11:40.179Z,44.00
2018-05-03T17:14:08.915Z,44.40
2018-05-03T17:16:37.345Z,44.90
2018-05-03T17:19:07.056Z,45.30
2018-05-03T17:21:35.605Z,46.00
2018-05-03T17:24:03.956Z,46.60
2018-05-03T17:26:32.382Z,47.40
2018-05-03T17:29:00.879Z,48.10
2018-05-03T17:31:29.203Z,48.80
2018-05-03T17:33:57.584Z,49.70
2018-05-03T17:36:26.072Z,50.70
2018-05-03T17:38:55.261Z,51.80
2018-05-03T17:41:23.652Z,51.80
2018-05-03T17:43:52.842Z,53.40
2018-05-03T17:46:21.184Z,52.80
2018-05-03T17:48:49.561Z,53.30
2018-05-03T17:51:18.032Z,53.70
2018-05-03T17:53:47.008Z,54.10
2018-05-03T17:56:15.359Z,54.50
2018-05-03T17:58:43.740Z,54.80
2018-05-03T18:01:12.895Z,55.60
2018-05-03T18:03:41.344Z,55.30
2018-05-03T18:06:10.467Z,54.60
2018-05-03T18:08:38.816Z,54.50
2018-05-03T18:11:07.235Z,54.40
2018-05-03T18:13:35.681Z,54.80
2018-05-03T18:16:04.148Z,54.80
2018-05-03T18:18:32.688Z,55.50
2018-05-03T18:21:01.169Z,55.70
2018-05-03T18:23:29.666Z,56.70
2018-05-03T18:25:58.174Z,57.50
2018-05-03T18:28:27.316Z,58.80
2018-05-03T18:30:55.660Z,58.10
2018-05-03T18:33:24.872Z,58.70
2018-05-03T18:35:53.217Z,58.70
2018-05-03T18:38:21.566Z,59.00
2018-05-03T18:40:49.984Z,59.90
2018-05-03T18:43:20.029Z,60.80
2018-05-03T18:45:48.522Z,60.80
2018-05-03T18:48:16.865Z,61.50
2018-05-03T18:50:46.029Z,61.90
2018-05-03T18:53:14.401Z,61.80
2018-05-03T18:55:42.777Z,62.10
2018-05-03T18:58:11.197Z,62.70
2018-05-03T19:00:39.649Z,63.60
2018-05-03T19:03:08.013Z,64.20
2018-05-03T19:05:36.420Z,64.60
2018-05-03T19:08:04.997Z,65.30
2018-05-03T19:10:33.458Z,65.80
2018-05-03T19:13:01.867Z,66.10
2018-05-03T19:15:30.195Z,67.00
2018-05-03T19:17:58.624Z,67.50
2018-05-03T19:20:26.970Z,67.70
2018-05-03T19:22:55.323Z,68.10
2018-05-03T19:25:23.868Z,69.50
2018-05-03T19:27:52.541Z,70.70
2018-05-03T19:30:20.898Z,71.90
2018-05-03T19:32:49.267Z,73.20
2018-05-03T19:35:17.636Z,74.20
2018-05-03T19:37:45.980Z,74.40
2018-05-03T19:40:14.358Z,74.40
2018-05-03T19:42:43.471Z,76.30
2018-05-03T19:45:12.585Z,75.30
2018-05-03T19:47:41.011Z,75.30
2018-05-03T19:50:09.315Z,75.10
2018-05-03T19:52:38.430Z,76.10
2018-05-03T19:55:06.895Z,75.60
2018-05-03T19:57:35.217Z,76.10
2018-05-03T20:00:03.805Z,76.20
2018-05-03T20:02:32.151Z,76.90
2018-05-03T20:05:01.377Z,77.80
2018-05-03T20:07:30.462Z,77.80
2018-05-03T20:10:00.504Z,77.90
2018-05-03T20:12:30.319Z,78.20
2018-05-03T20:14:59.529Z,78.20
2018-05-03T20:17:27.882Z,78.50
2018-05-03T20:19:56.225Z,79.00
2018-05-03T20:22:25.387Z,79.70
2018-05-03T20:24:54.402Z,79.70
2018-05-03T20:27:22.728Z,80.00
2018-05-03T20:29:51.307Z,80.40
2018-05-03T20:32:19.684Z,81.20
2018-05-03T20:34:48.073Z,81.80
2018-05-03T20:37:16.437Z,82.40
2018-05-03T20:39:44.868Z,82.50
2018-05-03T20:42:13.176Z,83.30
2018-05-03T20:44:42.639Z,83.50
2018-05-03T20:47:11.814Z,83.60
2018-05-03T20:49:40.139Z,83.50
2018-05-03T20:52:09.384Z,84.20
2018-05-03T20:54:37.714Z,84.20
2018-05-03T20:57:07.155Z,84.80
2018-05-03T20:59:35.492Z,84.80
2018-05-03T21:02:03.860Z,85.20
2018-05-03T21:04:32.207Z,85.40
2018-05-03T21:07:00.827Z,85.90
2018-05-03T21:09:29.158Z,85.90
2018-05-03T21:11:57.506Z,86.50
2018-05-03T21:14:26.649Z,87.50
2018-05-03T21:16:55.025Z,87.40
2018-05-03T21:19:23.384Z,87.60
2018-05-03T21:21:51.724Z,88.10
2018-05-03T21:24:20.078Z,88.30
2018-05-03T21:26:48.429Z,88.60
2018-05-03T21:29:16.800Z,88.90
2018-05-03T21:31:45.319Z,89.30
2018-05-03T21:34:13.763Z,89.70
2018-05-03T21:36:42.109Z,89.90
2018-05-03T21:39:11.122Z,90.00
2018-05-03T21:41:40.277Z,90.70
2018-05-03T21:44:08.631Z,90.20
2018-05-03T21:46:36.989Z,90.40
2018-05-03T21:49:06.087Z,90.70
2018-05-03T21:51:34.434Z,90.80
2018-05-03T21:54:02.795Z,90.90
2018-05-03T21:56:31.145Z,91.00
2018-05-03T21:58:59.505Z,91.20
2018-05-03T22:01:27.915Z,91.20
2018-05-03T22:03:56.362Z,91.40
2018-05-03T22:06:24.661Z,91.50
2018-05-03T22:08:52.990Z,91.60
2018-05-03T22:11:22.087Z,92.30
2018-05-03T22:13:51.477Z,92.10
2018-05-03T22:16:19.808Z,91.90
2018-05-03T22:18:48.170Z,92.00
2018-05-03T22:21:16.631Z,92.20
2018-05-03T22:23:45.005Z,92.50
2018-05-03T22:26:13.490Z,92.50
2018-05-03T22:28:41.845Z,92.80
2018-05-03T22:31:10.207Z,92.80
2018-05-03T22:33:38.557Z,92.70
2018-05-03T22:36:06.924Z,92.90
2018-05-03T22:38:36.024Z,93.30
2018-05-03T22:41:04.502Z,93.20
2018-05-03T22:43:32.848Z,93.30
2018-05-03T22:46:01.273Z,93.30
2018-05-03T22:48:29.671Z,93.50
2018-05-03T22:50:58.064Z,93.60
2018-05-03T22:53:26.401Z,93.60
2018-05-03T22:55:54.735Z,93.70
2018-05-03T22:58:23.925Z,93.70
2018-05-03T23:00:52.440Z,93.70
2018-05-03T23:03:20.803Z,93.90
2018-05-03T23:05:49.268Z,93.90
2018-05-03T23:08:17.647Z,93.90
2018-05-03T23:10:46.039Z,94.00
2018-05-03T23:13:14.454Z,94.10
2018-05-03T23:15:45.059Z,94.20
2018-05-03T23:18:13.716Z,94.70
2018-05-03T23:20:42.109Z,94.80
2018-05-03T23:23:10.476Z,95.00
2018-05-03T23:25:38.963Z,95.10
2018-05-03T23:28:07.290Z,95.20
2018-05-03T23:30:36.043Z,95.40
2018-05-03T23:33:04.392Z,95.30
2018-05-03T23:35:32.895Z,95.40
2018-05-03T23:38:01.301Z,95.50
2018-05-03T23:40:29.634Z,95.60
2018-05-03T23:42:58.020Z,95.60
2018-05-03T23:45:26.347Z,95.60
2018-05-03T23:47:55.469Z,96.10
2018-05-03T23:50:23.843Z,96.10
2018-05-03T23:52:52.189Z,96.10
2018-05-03T23:55:20.721Z,96.20
2018-05-03T23:57:49.068Z,96.20
